Archival Weather

Central Park

Central Park, New York (KNYC)

Report from: Thursday, September 21, 2023 9:51 AM EDT
Current time: Sunday, February 25, 2024 5:26 PM EST

Current weather – Weather history – Daily summaries
Weather forecast

Temperature16.7°C (62.1°F)
Dew point10.0°C (50.0°F)
Winds 4 kts (2.1 m/s, 4.6 mph) Vrb
Winds variableWinds variable
Visibility10 mi. (16.1 km)
Clouds Sky clear
Altimeter30.30 in.Hg (1026 mB)
Relative humidity65 %
Density altitude-27 ft. (-8 m)
Sea-level pressure102.5 kPa (1025 mB, 30.27 in.Hg)
Remarks Fully automated report
System requires maintenance
Automated weather observing station with precipitation discriminator
Flight conditions Visual Meteorological Conditions
Raw dataKNYC 211351Z AUTO VRB04KT 10SM CLR 17/10 A3030 RMK AO2 SLP252 T01670100 $
An error has occurred. This application may no longer respond until reloaded. Reload 🗙